Time;durP1;ratioP1;P1;durP2;ratioP2;P2;SDS_P1;SDS_P2;PMS_P1;PMS_P2;Temp;Humidity;BMP_temperature;BMP_pressure;BME280_temperature;BME280_humidity;BME280_pressure;Samples;Min_cycle;Max_cycle;Signal;HPM_P1;HPM_P2
2023/05/23 04:20:38;;;;;;;13.82;9.18;;;;;;;14.29;100.00;99998.06;5547683;32;521222;-90
2023/05/23 04:23:50;;;;;;;13.50;9.13;;;;;;;14.29;100.00;99998.06;5545104;32;34260;-86
2023/05/23 04:27:01;;;;;;;11.15;8.30;;;;;;;13.97;100.00;100001.19;5544002;32;34984;-86
2023/05/23 04:30:10;;;;;;;9.43;8.02;;;;;;;14.00;100.00;100006.34;5543698;32;33699;-85
2023/05/23 04:33:20;;;;;;;10.18;7.55;;;;;;;14.22;100.00;100001.28;5543496;32;33676;-85
2023/05/23 04:36:36;;;;;;;10.18;8.25;;;;;;;14.42;100.00;99998.03;5543277;32;33962;-85
2023/05/23 04:39:46;;;;;;;10.07;8.10;;;;;;;14.48;100.00;99995.91;5543387;32;33597;-86
2023/05/23 04:42:55;;;;;;;14.82;8.13;;;;;;;14.68;100.00;100002.44;5543101;32;33417;-86
2023/05/23 04:46:03;;;;;;;10.80;8.40;;;;;;;14.85;100.00;100000.37;5543277;32;34580;-86
2023/05/23 04:49:09;;;;;;;12.18;8.77;;;;;;;15.23;100.00;100002.00;5543408;32;33650;-86
2023/05/23 04:52:17;;;;;;;15.48;7.75;;;;;;;15.59;100.00;100000.16;5543113;32;34635;-86
2023/05/23 04:55:27;;;;;;;12.13;7.67;;;;;;;15.75;100.00;100002.50;5542996;32;33779;-86
2023/05/23 04:58:34;;;;;;;14.20;7.62;;;;;;;15.91;100.00;99995.97;5542798;32;33856;-86
2023/05/23 05:01:44;;;;;;;12.18;9.13;;;;;;;16.13;100.00;99989.81;5542767;32;34540;-86
2023/05/23 05:04:53;;;;;;;10.93;7.62;;;;;;;16.22;100.00;99995.38;5542676;32;34473;-85
2023/05/23 05:08:00;;;;;;;10.07;7.47;;;;;;;16.22;100.00;99990.91;5543923;32;33591;-86
2023/05/23 05:11:09;;;;;;;10.75;7.03;;;;;;;16.27;100.00;99986.03;5543572;32;33475;-86
2023/05/23 05:14:18;;;;;;;11.12;7.22;;;;;;;16.51;100.00;99986.84;5543309;32;33475;-90
2023/05/23 05:17:26;;;;;;;10.38;6.65;;;;;;;16.72;100.00;99989.59;5542307;32;33683;-87
2023/05/23 05:20:36;;;;;;;12.18;6.97;;;;;;;17.05;100.00;99990.50;5542747;32;33646;-86
2023/05/23 05:23:45;;;;;;;11.38;6.55;;;;;;;17.19;100.00;99994.69;5543436;32;33704;-86
2023/05/23 05:26:56;;;;;;;8.43;6.10;;;;;;;17.93;100.00;99997.44;5543453;32;35182;-86
2023/05/23 05:30:05;;;;;;;10.52;5.95;;;;;;;20.70;100.00;100001.72;5536671;32;33327;-86
2023/05/23 05:33:17;;;;;;;6.30;5.37;;;;;;;23.78;86.87;99995.91;5534629;32;32507;-86
2023/05/23 05:36:25;;;;;;;10.70;5.68;;;;;;;25.43;72.41;99992.50;5531798;32;34715;-87
2023/05/23 05:39:33;;;;;;;7.95;5.50;;;;;;;26.17;68.07;99992.78;5529476;32;33357;-86
2023/05/23 05:42:40;;;;;;;9.23;5.32;;;;;;;25.80;65.92;100001.69;5536978;32;34478;-86
2023/05/23 05:45:46;;;;;;;7.97;5.75;;;;;;;25.66;66.50;100000.66;5530908;32;33702;-87
2023/05/23 05:48:54;;;;;;;9.82;5.43;;;;;;;24.96;66.85;99997.97;5528246;32;33831;-87
2023/05/23 05:52:00;;;;;;;7.53;5.37;;;;;;;24.75;67.56;100002.13;5522364;32;34644;-87
2023/05/23 05:55:07;;;;;;;6.47;5.40;;;;;;;24.44;68.20;99992.13;5523520;32;34214;-86
2023/05/23 05:58:14;;;;;;;6.45;5.22;;;;;;;23.94;70.37;99994.19;5525185;32;34520;-86
2023/05/23 06:01:20;;;;;;;6.87;5.47;;;;;;;23.91;71.13;99999.94;5516106;32;33907;-86
2023/05/23 06:04:26;;;;;;;10.38;5.60;;;;;;;23.95;70.42;99993.97;5511900;32;33082;-85
2023/05/23 06:07:34;;;;;;;11.20;5.70;;;;;;;23.50;72.23;99990.88;5520037;32;33734;-85
2023/05/23 06:10:41;;;;;;;7.28;5.70;;;;;;;23.75;71.19;99984.56;5519985;32;34815;-85
2023/05/23 06:13:45;;;;;;;11.12;5.70;;;;;;;23.19;73.04;99988.84;5528375;32;33716;-85
2023/05/23 06:16:51;;;;;;;7.18;5.53;;;;;;;23.22;73.93;99991.19;5519800;32;33290;-86
2023/05/23 06:19:58;;;;;;;5.75;5.18;;;;;;;25.48;66.02;99991.97;5522623;32;34674;-85
2023/05/23 06:23:04;;;;;;;7.53;5.55;;;;;;;26.04;61.14;99996.19;5536602;32;34266;-89
2023/05/23 06:26:10;;;;;;;11.60;5.78;;;;;;;24.97;64.25;99999.66;5527650;32;36421;-87
2023/05/23 06:29:13;;;;;;;8.82;5.70;;;;;;;25.38;64.11;99993.06;5535518;32;34064;-86
2023/05/23 06:32:17;;;;;;;9.90;5.32;;;;;;;25.23;63.32;99992.16;5517759;32;33951;-84
2023/05/23 06:35:23;;;;;;;9.85;5.62;;;;;;;24.65;63.77;99995.25;5527621;32;33947;-85
2023/05/23 06:38:28;;;;;;;11.40;6.05;;;;;;;24.54;67.00;99993.81;5515429;32;33542;-85
2023/05/23 06:41:35;;;;;;;10.75;6.93;;;;;;;24.11;67.12;100000.41;5521811;32;33688;-85
2023/05/23 06:44:40;;;;;;;10.55;5.90;;;;;;;23.73;67.42;99981.19;5529045;32;34984;-85
2023/05/23 06:47:48;;;;;;;13.02;6.80;;;;;;;23.92;67.85;99988.94;5520936;32;33806;-87
2023/05/23 06:50:54;;;;;;;14.20;6.43;;;;;;;23.55;69.24;99988.47;5529684;32;33903;-87
2023/05/23 06:53:59;;;;;;;8.85;6.62;;;;;;;23.48;68.93;99984.78;5520561;32;33715;-86
2023/05/23 06:57:05;;;;;;;14.70;7.15;;;;;;;23.34;69.15;99986.34;5510839;32;33944;-87
2023/05/23 07:00:13;;;;;;;9.45;6.57;;;;;;;23.01;70.52;99978.16;5511699;32;33823;-86
2023/05/23 07:03:21;;;;;;;9.25;6.70;;;;;;;23.37;71.84;99967.03;5515154;32;32535;-85
2023/05/23 07:06:35;;;;;;;11.00;7.45;;;;;;;23.83;69.96;99979.13;5524886;32;33488;-85
2023/05/23 07:09:40;;;;;;;12.57;8.02;;;;;;;24.01;68.38;99978.91;5525623;32;34619;-85
2023/05/23 07:12:46;;;;;;;11.50;7.00;;;;;;;23.95;64.87;99975.03;5542730;32;34120;-85
2023/05/23 07:15:55;;;;;;;15.13;7.55;;;;;;;24.06;65.08;99963.00;5527818;32;33886;-84
2023/05/23 07:19:03;;;;;;;15.55;7.15;;;;;;;23.82;67.20;99964.75;5529553;32;34531;-85
2023/05/23 07:22:08;;;;;;;10.60;6.30;;;;;;;24.19;65.53;99962.44;5540906;32;32765;-85
2023/05/23 07:25:14;;;;;;;9.82;6.80;;;;;;;24.05;62.30;99952.31;5549067;32;34451;-84
2023/05/23 07:28:19;;;;;;;14.00;7.40;;;;;;;24.37;64.33;99955.94;5527176;32;33999;-86
2023/05/23 07:31:24;;;;;;;8.73;6.50;;;;;;;24.86;63.48;99960.25;5528994;32;34223;-85
2023/05/23 07:34:30;;;;;;;9.10;6.57;;;;;;;25.11;63.22;99949.22;5533438;32;33669;-84
2023/05/23 07:37:36;;;;;;;10.05;6.30;;;;;;;25.30;60.53;99957.88;5526908;32;33781;-84
2023/05/23 07:40:41;;;;;;;13.85;6.70;;;;;;;25.64;59.35;99953.81;5520769;32;34421;-89
2023/05/23 07:43:45;;;;;;;8.68;6.87;;;;;;;25.42;58.21;99955.53;5536541;32;33920;-88
2023/05/23 07:46:50;;;;;;;11.07;6.50;;;;;;;26.02;56.91;99957.47;5538188;32;33694;-88
2023/05/23 07:49:55;;;;;;;7.68;6.00;;;;;;;26.22;55.27;99950.47;5528741;32;33968;-84
2023/05/23 07:53:01;;;;;;;11.90;7.37;;;;;;;26.37;55.14;99952.31;5537744;32;34021;-84
2023/05/23 07:56:10;;;;;;;9.57;6.80;;;;;;;26.55;53.84;99951.88;5534877;32;35202;-84
2023/05/23 07:59:18;;;;;;;11.48;7.35;;;;;;;26.94;53.02;99943.50;5545689;32;33794;-84
2023/05/23 08:02:23;;;;;;;13.73;7.80;;;;;;;27.03;51.42;99945.06;5522744;32;34487;-84
2023/05/23 08:05:29;;;;;;;12.45;7.55;;;;;;;27.03;50.33;99945.91;5536588;32;33686;-84
2023/05/23 08:08:35;;;;;;;9.73;6.62;;;;;;;27.00;49.21;99935.41;5529456;32;34148;-84
2023/05/23 08:11:41;;;;;;;11.88;6.97;;;;;;;27.47;50.18;99947.69;5532565;32;32548;-85
2023/05/23 08:14:49;;;;;;;11.10;6.65;;;;;;;27.10;49.31;99945.94;5529647;32;34346;-84
2023/05/23 08:17:55;;;;;;;10.40;6.97;;;;;;;27.57;47.46;99945.47;5528212;32;33839;-85
2023/05/23 08:21:02;;;;;;;11.77;6.05;;;;;;;27.80;48.61;99939.78;5516728;32;33989;-84
2023/05/23 08:24:11;;;;;;;11.40;6.60;;;;;;;28.24;48.01;99942.31;5523610;32;34465;-85
2023/05/23 08:27:18;;;;;;;11.65;6.60;;;;;;;28.23;46.13;99952.41;5519506;32;34113;-86
2023/05/23 08:30:28;;;;;;;16.02;7.43;;;;;;;28.23;45.26;99946.09;5528398;32;34412;-85
2023/05/23 08:33:34;;;;;;;11.98;6.82;;;;;;;29.05;44.89;99945.25;5524072;32;34256;-85
2023/05/23 08:36:38;;;;;;;11.20;6.80;;;;;;;29.40;42.59;99938.72;5528358;32;34601;-85
2023/05/23 08:39:42;;;;;;;11.00;6.82;;;;;;;29.99;43.23;99941.56;5512612;32;33596;-85
2023/05/23 08:42:50;;;;;;;14.68;7.20;;;;;;;29.52;41.64;99942.50;5516118;32;33775;-85
2023/05/23 08:45:56;;;;;;;11.60;6.90;;;;;;;29.72;42.76;99934.28;5515358;32;35297;-85
2023/05/23 08:49:01;;;;;;;13.55;6.68;;;;;;;30.64;39.35;99935.19;5518444;32;34500;-86
2023/05/23 08:52:11;;;;;;;9.73;6.43;;;;;;;30.95;40.70;99929.09;5522387;32;33995;-86
2023/05/23 08:55:18;;;;;;;14.80;7.05;;;;;;;30.84;39.14;99931.50;5541526;32;33267;-85
2023/05/23 08:58:28;;;;;;;9.98;6.10;;;;;;;30.73;39.63;99937.69;5540540;32;33799;-90
2023/05/23 09:01:33;;;;;;;9.27;6.65;;;;;;;31.44;39.23;99937.56;5525959;32;32577;-89
2023/05/23 09:04:38;;;;;;;11.43;6.32;;;;;;;31.14;39.23;99940.94;5523509;32;33316;-85
2023/05/23 09:07:47;;;;;;;8.80;6.25;;;;;;;31.71;37.09;99938.13;5518250;32;33723;-85
2023/05/23 09:10:54;;;;;;;12.65;6.30;;;;;;;31.86;37.79;99943.25;5530486;32;34900;-88
2023/05/23 09:14:00;;;;;;;10.70;6.80;;;;;;;32.79;38.13;99933.19;5518651;32;34280;-89
2023/05/23 09:17:04;;;;;;;6.32;5.78;;;;;;;32.17;36.14;99937.81;5536472;32;33830;-89
2023/05/23 09:20:13;;;;;;;9.13;6.37;;;;;;;31.71;35.64;99938.13;5525178;32;33745;-88
2023/05/23 09:23:19;;;;;;;8.77;5.90;;;;;;;31.64;36.03;99939.25;5529887;32;33913;-88
2023/05/23 09:26:24;;;;;;;7.57;6.07;;;;;;;32.54;36.20;99931.44;5534523;32;34403;-88
2023/05/23 09:29:28;;;;;;;11.63;5.85;;;;;;;33.12;34.42;99933.75;5530563;32;33764;-87
2023/05/23 09:32:31;;;;;;;6.05;5.25;;;;;;;32.58;33.86;99937.31;5523829;32;34334;-88
2023/05/23 09:35:45;;;;;;;6.93;4.87;;;;;;;33.23;33.66;99934.84;5534410;32;34050;-88
2023/05/23 09:38:51;;;;;;;12.02;5.15;;;;;;;33.81;31.41;99935.03;5543698;32;33924;-88
2023/05/23 09:41:54;;;;;;;8.57;5.18;;;;;;;34.61;30.25;99938.06;5592672;26;34513;-88
2023/05/23 09:44:59;;;;;;;8.23;4.82;;;;;;;34.63;28.37;99935.88;5542920;32;34819;-89
2023/05/23 09:48:11;;;;;;;18.45;6.00;;;;;;;36.12;26.67;99934.84;5532844;32;34507;-89
2023/05/23 09:51:21;;;;;;;6.72;5.00;;;;;;;34.93;28.33;99931.16;5568723;32;33722;-88
2023/05/23 09:54:27;;;;;;;10.38;5.28;;;;;;;33.62;29.24;99926.13;5556743;32;33597;-89
2023/05/23 09:57:34;;;;;;;6.18;5.15;;;;;;;33.42;31.18;99921.78;5542441;32;33347;-89
2023/05/23 10:00:40;;;;;;;8.85;6.40;;;;;;;33.61;30.94;99925.28;5540211;32;33504;-89
2023/05/23 10:03:56;;;;;;;9.70;6.10;;;;;;;33.63;31.57;99917.63;5546383;32;33596;-88
2023/05/23 10:07:22;;;;;;;7.95;5.57;;;;;;;33.98;31.41;99924.16;5549817;32;33978;-89
2023/05/23 10:10:34;;;;;;;10.48;6.00;;;;;;;33.78;32.04;99914.38;5536687;32;33909;-88
2023/05/23 10:13:42;;;;;;;9.20;6.90;;;;;;;33.33;32.57;99913.91;5557239;32;33869;-88
2023/05/23 10:17:18;;;;;;;8.57;5.50;;;;;;;32.93;34.14;99912.66;5544451;32;33673;-88
2023/05/23 10:20:33;;;;;;;10.07;5.87;;;;;;;33.98;32.37;99907.66;5544790;32;33422;-87
2023/05/23 10:23:40;;;;;;;9.25;6.10;;;;;;;34.78;30.21;99901.44;5552722;32;33721;-87
2023/05/23 10:26:45;;;;;;;9.73;5.78;;;;;;;35.10;29.19;99913.81;5550184;32;35471;-87
2023/05/23 10:29:51;;;;;;;8.02;5.93;;;;;;;34.33;30.22;99905.88;5551763;32;33598;-87
2023/05/23 10:32:57;;;;;;;10.07;6.37;;;;;;;34.49;30.70;99902.28;5546019;32;35439;-87
2023/05/23 10:36:24;;;;;;;8.10;6.67;;;;;;;32.36;34.73;99900.22;5570749;32;34069;-87
2023/05/23 10:39:34;;;;;;;8.63;6.15;;;;;;;31.51;38.06;99893.66;5563958;32;35222;-86
2023/05/23 10:42:49;;;;;;;;;;;;;;;30.95;38.21;99888.00;5546451;32;33379;-86
2023/05/23 10:45:55;;;;;;;9.63;5.87;;;;;;;30.43;40.11;99891.72;5562206;32;34079;-88
2023/05/23 10:49:10;;;;;;;9.48;6.22;;;;;;;30.70;39.12;99883.38;5553713;32;34025;-87
2023/05/23 10:52:35;;;;;;;8.25;6.25;;;;;;;31.52;37.41;99887.91;5548468;32;33931;-88
2023/05/23 10:55:47;;;;;;;9.48;6.05;;;;;;;31.88;36.79;99885.44;5539949;32;34435;-88
2023/05/23 10:58:55;;;;;;;7.60;6.05;;;;;;;32.77;35.83;99888.63;5546459;32;34200;-88
2023/05/23 11:02:02;;;;;;;9.77;5.72;;;;;;;33.32;34.01;99875.69;5543975;32;33579;-88
2023/05/23 11:05:23;;;;;;;7.03;6.32;;;;;;;33.59;33.27;99875.22;5548227;32;34140;-92
2023/05/23 11:08:36;;;;;;;13.35;6.70;;;;;;;34.18;31.48;99874.19;5545483;32;34544;-88
2023/05/23 11:11:51;;;;;;;11.18;6.72;;;;;;;32.13;35.01;99865.28;5546408;32;33910;-88
2023/05/23 11:14:54;;;;;;;11.63;7.18;;;;;;;30.93;36.07;99863.63;5556084;32;33085;-90
2023/05/23 11:17:59;;;;;;;9.65;6.72;;;;;;;29.42;39.99;99847.31;5545463;32;33381;-90
2023/05/23 11:21:04;;;;;;;12.70;7.47;;;;;;;29.65;40.88;99856.09;5534896;32;34484;-88
2023/05/23 11:24:09;;;;;;;10.32;8.30;;;;;;;29.99;39.60;99849.47;5547492;32;34690;-89
2023/05/23 11:27:12;;;;;;;10.65;7.85;;;;;;;28.65;42.67;99845.03;5541064;32;33911;-88
2023/05/23 11:30:17;;;;;;;12.60;7.43;;;;;;;28.00;44.62;99846.34;5549784;32;33632;-88
2023/05/23 11:33:25;;;;;;;10.48;7.55;;;;;;;27.96;45.62;99840.47;5553016;32;35063;-88
2023/05/23 11:36:30;;;;;;;17.25;8.73;;;;;;;27.91;44.56;99833.97;5551158;32;33997;-88
2023/05/23 11:39:35;;;;;;;11.88;8.13;;;;;;;27.87;45.18;99833.53;5548358;32;33595;-88
2023/05/23 11:42:42;;;;;;;13.55;7.47;;;;;;;27.70;45.79;99833.87;5540833;32;33798;-88
2023/05/23 11:45:46;;;;;;;12.13;7.97;;;;;;;28.01;44.46;99826.25;5595437;26;33952;-87
2023/05/23 11:48:50;;;;;;;10.85;6.95;;;;;;;28.39;44.98;99813.97;5536996;32;33847;-87
2023/05/23 11:52:01;;;;;;;8.80;6.80;;;;;;;28.76;44.35;99811.69;5546618;32;33686;-87
2023/05/23 11:55:09;;;;;;;16.27;7.57;;;;;;;29.13;41.45;99813.16;5534712;32;33856;-87
2023/05/23 11:58:15;;;;;;;9.75;6.57;;;;;;;28.93;41.16;99803.09;5534354;32;33815;-87
2023/05/23 12:01:32;;;;;;;10.30;7.40;;;;;;;29.30;39.79;99802.59;5562408;32;34000;-88
2023/05/23 12:04:40;;;;;;;12.35;6.97;;;;;;;29.09;42.46;99782.69;5543698;32;34234;-87
2023/05/23 12:07:46;;;;;;;8.00;6.37;;;;;;;29.31;40.48;99775.06;5554650;32;33750;-87
2023/05/23 12:10:58;;;;;;;7.72;6.20;;;;;;;29.37;40.75;99783.47;5544251;32;35275;-91
2023/05/23 12:14:05;;;;;;;7.05;6.35;;;;;;;29.38;41.55;99783.25;5547745;32;33023;-86
2023/05/23 12:17:08;;;;;;;8.93;6.85;;;;;;;28.61;43.21;99779.16;5540143;32;33805;-88
2023/05/23 12:20:12;;;;;;;9.00;6.68;;;;;;;28.65;43.67;99772.22;5556416;32;33756;-88
2023/05/23 12:23:23;;;;;;;6.90;6.28;;;;;;;29.15;41.13;99762.72;5560756;32;31800;-88
2023/05/23 12:26:29;;;;;;;8.05;6.25;;;;;;;29.32;42.20;99757.63;5571376;26;33692;-87
2023/05/23 12:29:49;;;;;;;10.13;6.40;;;;;;;29.29;40.44;99758.06;5597837;26;33531;-88
2023/05/23 12:36:33;;;;;;;7.05;6.35;;;;;;;30.02;40.41;99754.38;4081246;29;20119;-87
2023/05/23 12:39:51;;;;;;;8.13;5.75;;;;;;;30.31;38.19;99750.19;5532078;32;33411;-87
2023/05/23 12:42:56;;;;;;;7.25;5.57;;;;;;;29.76;38.01;99745.28;5544789;32;33695;-87
2023/05/23 12:46:02;;;;;;;6.40;5.20;;;;;;;29.86;38.09;99749.22;5550381;32;34430;-87
2023/05/23 12:49:06;;;;;;;7.28;5.85;;;;;;;30.10;38.17;99735.84;5548301;32;33990;-87
2023/05/23 12:52:10;;;;;;;10.13;6.00;;;;;;;29.38;38.18;99738.69;5537385;32;34487;-86
2023/05/23 12:55:14;;;;;;;7.80;5.75;;;;;;;29.17;38.75;99722.38;5563310;32;34773;-87
2023/05/23 12:58:19;;;;;;;7.00;5.82;;;;;;;28.91;39.88;99731.53;5552685;32;35332;-86
2023/05/23 13:01:24;;;;;;;10.13;6.10;;;;;;;28.72;40.48;99723.12;5547950;32;33779;-86
2023/05/23 13:04:29;;;;;;;10.43;6.35;;;;;;;29.21;39.23;99721.97;5543073;32;33786;-86
2023/05/23 13:07:37;;;;;;;6.65;5.65;;;;;;;29.27;40.36;99708.28;5548360;32;34456;-88
2023/05/23 13:10:40;;;;;;;8.45;6.03;;;;;;;29.09;38.08;99703.53;5550261;32;34453;-90
2023/05/23 13:13:45;;;;;;;6.07;5.53;;;;;;;28.82;38.90;99700.84;5548400;32;34819;-89
2023/05/23 13:16:51;;;;;;;8.98;5.75;;;;;;;28.16;41.37;99699.84;5548869;32;33937;-86
2023/05/23 13:19:54;;;;;;;9.73;5.70;;;;;;;28.04;41.41;99714.09;5560822;32;34322;-86
2023/05/23 13:22:58;;;;;;;6.30;5.62;;;;;;;28.47;40.60;99712.84;5552872;32;33876;-86
2023/05/23 13:26:02;;;;;;;12.60;6.18;;;;;;;28.07;41.14;99702.78;5557463;32;34495;-85
2023/05/23 13:29:05;;;;;;;6.78;5.40;;;;;;;28.19;40.61;99704.84;5562734;32;33617;-86
2023/05/23 13:32:08;;;;;;;7.97;6.05;;;;;;;28.46;41.17;99697.53;5554019;32;34035;-85
2023/05/23 13:35:13;;;;;;;9.68;5.97;;;;;;;28.33;39.80;99698.41;5549813;32;34600;-85
2023/05/23 13:38:19;;;;;;;7.28;5.43;;;;;;;28.42;39.88;99700.91;5565421;32;35245;-85
2023/05/23 13:41:26;;;;;;;9.68;5.85;;;;;;;28.54;40.76;99703.81;5546393;32;34263;-84
2023/05/23 13:44:30;;;;;;;7.82;5.40;;;;;;;28.77;39.68;99701.47;5550459;32;33579;-85
2023/05/23 13:47:36;;;;;;;6.50;5.55;;;;;;;29.01;39.02;99699.13;5549412;32;33902;-86
2023/05/23 13:50:43;;;;;;;8.27;5.60;;;;;;;28.43;39.60;99692.53;5549351;32;32724;-86
2023/05/23 13:53:52;;;;;;;5.50;5.00;;;;;;;28.33;40.21;99694.81;5550145;32;33973;-86
2023/05/23 13:56:58;;;;;;;11.48;6.60;;;;;;;28.67;39.92;99701.09;5550350;32;33703;-86
2023/05/23 14:00:07;;;;;;;8.00;5.50;;;;;;;29.00;39.42;99696.63;5549805;32;33741;-86
2023/05/23 14:03:18;;;;;;;9.55;4.97;;;;;;;29.26;37.57;99694.84;5556735;32;34298;-86
2023/05/23 14:06:26;;;;;;;8.43;5.30;;;;;;;29.27;36.91;99694.63;5559191;32;33764;-86
2023/05/23 14:09:35;;;;;;;6.57;5.10;;;;;;;28.96;36.95;99681.75;5556771;32;33949;-86
2023/05/23 14:12:42;;;;;;;7.65;5.40;;;;;;;28.71;36.85;99685.94;5533651;32;33707;-86
2023/05/23 14:15:52;;;;;;;5.75;5.12;;;;;;;28.16;38.70;99681.56;5529712;32;33711;-86
2023/05/23 14:19:00;;;;;;;7.87;4.85;;;;;;;28.22;38.24;99683.50;5531348;32;34138;-86
2023/05/23 14:22:07;;;;;;;7.57;4.97;;;;;;;28.83;36.26;99675.25;5550244;32;34282;-85
2023/05/23 14:25:15;;;;;;;5.80;5.00;;;;;;;29.06;36.44;99676.62;5529840;32;34839;-86
2023/05/23 14:28:21;;;;;;;6.32;4.93;;;;;;;28.71;36.12;99666.03;5530634;32;33918;-90
2023/05/23 14:31:29;;;;;;;7.40;5.07;;;;;;;28.52;36.60;99666.69;5535218;32;34048;-90
2023/05/23 14:34:36;;;;;;;7.10;4.85;;;;;;;29.09;35.48;99667.19;5534110;32;33769;-86
2023/05/23 14:37:47;;;;;;;6.25;4.45;;;;;;;29.17;35.16;99675.16;5531480;32;33774;-87
2023/05/23 14:40:54;;;;;;;5.20;4.70;;;;;;;28.71;35.36;99666.84;5542555;32;33941;-87
2023/05/23 14:44:03;;;;;;;5.37;4.53;;;;;;;28.79;34.70;99665.78;5542612;32;34819;-86
2023/05/23 14:47:13;;;;;;;5.57;4.65;;;;;;;28.72;34.60;99674.00;5531639;32;33689;-87
2023/05/23 14:50:20;;;;;;;6.95;4.80;;;;;;;28.48;35.53;99676.38;5529817;32;33787;-86
2023/05/23 14:53:28;;;;;;;10.85;5.12;;;;;;;29.01;35.86;99671.00;5529541;32;33883;-86
2023/05/23 14:56:36;;;;;;;9.07;4.47;;;;;;;28.99;36.10;99675.84;5529861;32;34800;-87
2023/05/23 14:59:46;;;;;;;7.47;5.07;;;;;;;29.37;34.46;99683.25;5529569;32;33869;-87
2023/05/23 15:02:53;;;;;;;7.15;4.85;;;;;;;29.04;36.10;99676.03;5528601;32;34559;-86
2023/05/23 15:06:05;;;;;;;;;;;;;;;29.32;35.12;99686.63;5530315;32;35552;-87
2023/05/23 15:09:13;;;;;;;6.47;4.70;;;;;;;28.85;36.16;99684.03;5530016;32;34469;-87
2023/05/23 15:12:22;;;;;;;6.70;4.82;;;;;;;28.77;36.21;99679.66;5530062;32;33513;-87
2023/05/23 15:15:35;;;;;;;5.95;4.72;;;;;;;28.84;36.35;99687.81;5529761;32;33511;-87
2023/05/23 15:18:44;;;;;;;7.80;5.12;;;;;;;28.52;38.09;99683.06;5530132;32;33660;-86
2023/05/23 15:21:52;;;;;;;6.00;4.85;;;;;;;28.72;37.14;99684.06;5562353;32;35125;-86
2023/05/23 15:24:59;;;;;;;6.85;5.03;;;;;;;28.77;36.95;99678.81;5565417;32;33691;-87
2023/05/23 15:28:05;;;;;;;7.72;5.10;;;;;;;28.70;37.57;99688.91;5548894;32;34608;-90
2023/05/23 15:31:10;;;;;;;8.38;5.00;;;;;;;28.68;36.78;99688.28;5555191;32;34236;-90
2023/05/23 15:34:17;;;;;;;7.78;5.25;;;;;;;28.03;38.67;99700.66;5549103;32;33876;-91
